Time;durP1;ratioP1;P1;durP2;ratioP2;P2;SDS_P1;SDS_P2;PMS_P1;PMS_P2;Temp;Humidity;BMP_temperature;BMP_pressure;BME280_temperature;BME280_humidity;BME280_pressure;Samples;Min_cycle;Max_cycle;Signal;HPM_P1;HPM_P2
2023/07/18 00:00:10;;;;;;;10.30;4.10;;;15.30;1.00;;;;;;4990374;28;20508;-64
2023/07/18 00:02:36;;;;;;;11.90;3.90;;;14.90;1.00;;;;;;4996981;28;20052;-64
2023/07/18 00:05:02;;;;;;;9.25;3.90;;;15.40;1.00;;;;;;4994939;28;20038;-64
2023/07/18 00:07:29;;;;;;;11.65;4.22;;;15.20;1.00;;;;;;4995902;28;20113;-65
2023/07/18 00:09:55;;;;;;;9.10;3.50;;;15.10;1.00;;;;;;4991361;28;20564;-65
2023/07/18 00:12:20;;;;;;;15.02;4.43;;;15.10;1.00;;;;;;4981571;28;20169;-65
2023/07/18 00:14:46;;;;;;;10.55;4.40;;;14.50;1.00;;;;;;4999724;28;20044;-65
2023/07/18 00:17:12;;;;;;;13.45;4.32;;;15.40;1.00;;;;;;5007465;28;20091;-65
2023/07/18 00:19:39;;;;;;;14.52;5.05;;;14.80;1.00;;;;;;4996401;28;20034;-64
2023/07/18 00:22:07;;;;;;;14.90;4.40;;;14.50;1.00;;;;;;5015920;28;20437;-65
2023/07/18 00:24:33;;;;;;;11.27;3.88;;;14.70;1.00;;;;;;4992774;28;20146;-64
2023/07/18 00:26:59;;;;;;;12.95;4.90;;;14.80;1.00;;;;;;5015204;28;20113;-65
2023/07/18 00:29:26;;;;;;;13.77;4.65;;;15.00;1.00;;;;;;4985512;28;20134;-65
2023/07/18 00:31:51;;;;;;;14.65;4.35;;;14.80;1.00;;;;;;5019553;28;20104;-65
2023/07/18 00:34:18;;;;;;;14.27;4.40;;;;;;;;;;5006601;28;20037;-65
2023/07/18 00:36:45;;;;;;;15.95;4.43;;;15.10;1.00;;;;;;4994689;28;20133;-65
2023/07/18 00:39:12;;;;;;;8.73;3.80;;;14.60;1.00;;;;;;4990055;28;20042;-65
2023/07/18 00:41:38;;;;;;;11.95;4.70;;;14.90;1.00;;;;;;4991779;28;20484;-65
2023/07/18 00:44:04;;;;;;;12.05;4.38;;;14.90;1.00;;;;;;4990347;28;20109;-65
2023/07/18 00:46:29;;;;;;;10.40;3.70;;;14.80;1.00;;;;;;4997066;28;20068;-65
2023/07/18 00:48:57;;;;;;;12.82;4.10;;;;;;;;;;4987331;28;20041;-65
2023/07/18 00:51:24;;;;;;;11.70;4.45;;;15.10;1.00;;;;;;4991558;28;20049;-65
2023/07/18 00:53:51;;;;;;;17.52;4.53;;;15.00;1.00;;;;;;5010213;28;20061;-65
2023/07/18 00:56:17;;;;;;;14.25;4.40;;;15.00;1.00;;;;;;4988668;28;20046;-65
2023/07/18 00:58:44;;;;;;;12.27;4.38;;;15.00;1.00;;;;;;4990732;28;20026;-65
2023/07/18 01:01:10;;;;;;;11.10;4.03;;;15.10;1.00;;;;;;4990961;28;20507;-64
2023/07/18 01:03:38;;;;;;;16.90;4.68;;;14.90;1.00;;;;;;4990258;28;20098;-65
2023/07/18 01:06:05;;;;;;;12.60;4.38;;;14.80;1.00;;;;;;4991999;28;20038;-65
2023/07/18 01:08:31;;;;;;;13.25;4.57;;;15.30;1.00;;;;;;4994792;28;20040;-65
2023/07/18 01:10:57;;;;;;;13.30;4.15;;;15.00;1.00;;;;;;5010934;28;20472;-65
2023/07/18 01:13:23;;;;;;;13.48;4.55;;;15.30;1.00;;;;;;4993849;28;20183;-65
2023/07/18 01:15:49;;;;;;;12.23;4.32;;;14.90;1.00;;;;;;5018813;28;20116;-65
2023/07/18 01:18:14;;;;;;;13.15;4.20;;;14.80;1.00;;;;;;4979741;28;20035;-65
2023/07/18 01:20:44;;;;;;;12.27;4.07;;;15.10;1.00;;;;;;4988859;28;20048;-65
2023/07/18 01:23:10;;;;;;;12.13;3.90;;;15.30;1.00;;;;;;4994523;28;20050;-65
2023/07/18 01:25:36;;;;;;;13.32;4.55;;;14.50;1.00;;;;;;4989660;28;20037;-65
2023/07/18 01:28:03;;;;;;;9.38;4.13;;;14.70;1.00;;;;;;4999750;28;20041;-65
2023/07/18 01:30:29;;;;;;;10.75;3.95;;;14.80;2.60;;;;;;4991721;28;20491;-65
2023/07/18 01:32:56;;;;;;;10.63;4.15;;;14.80;6.70;;;;;;4991381;28;20086;-65
2023/07/18 01:35:27;;;;;;;9.95;4.10;;;14.90;7.90;;;;;;4984874;28;20046;-65
2023/07/18 01:37:54;;;;;;;12.57;4.05;;;14.50;9.90;;;;;;4996380;28;20040;-65
2023/07/18 01:40:21;;;;;;;11.35;5.28;;;15.40;8.20;;;;;;4988499;28;20088;-65
2023/07/18 01:42:51;;;;;;;15.18;4.30;;;14.80;13.60;;;;;;5002752;28;20045;-65
2023/07/18 01:45:19;;;;;;;10.52;4.47;;;14.10;18.10;;;;;;4993553;28;20532;-65
2023/07/18 01:47:45;;;;;;;11.93;4.03;;;15.40;18.00;;;;;;4994982;28;20489;-65
2023/07/18 01:50:11;;;;;;;12.70;3.95;;;14.60;26.50;;;;;;4987647;28;20034;-65
2023/07/18 01:52:37;;;;;;;10.20;4.43;;;15.00;30.70;;;;;;4998939;28;20049;-65
2023/07/18 01:55:05;;;;;;;12.45;5.05;;;15.10;46.30;;;;;;4991386;28;20057;-66
2023/07/18 01:57:40;;;;;;;10.85;4.30;;;14.90;42.60;;;;;;4997437;28;20042;-66
2023/07/18 02:00:18;;;;;;;12.63;3.78;;;14.90;39.40;;;;;;4985654;28;20042;-65
2023/07/18 02:02:48;;;;;;;8.00;3.78;;;14.90;48.20;;;;;;4984413;28;20050;-65
2023/07/18 02:05:16;;;;;;;15.00;5.55;;;14.90;49.90;;;;;;4995960;28;20109;-66
2023/07/18 02:07:41;;;;;;;15.93;4.38;;;14.70;43.90;;;;;;4989274;28;20041;-65
2023/07/18 02:10:07;;;;;;;13.10;4.57;;;15.70;51.60;;;;;;4987710;28;20026;-65
2023/07/18 02:12:33;;;;;;;10.05;4.28;;;15.60;66.80;;;;;;4996755;28;20038;-65
2023/07/18 02:14:59;;;;;;;12.15;4.78;;;15.00;73.40;;;;;;4990126;28;20034;-65
2023/07/18 02:17:24;;;;;;;17.23;5.32;;;15.20;75.10;;;;;;4995006;28;20088;-65
2023/07/18 02:19:50;;;;;;;14.48;6.40;;;15.20;76.30;;;;;;4985356;28;20385;-65
2023/07/18 02:22:19;;;;;;;10.57;4.00;;;14.90;68.00;;;;;;5006184;28;20069;-65
2023/07/18 02:24:45;;;;;;;13.65;4.70;;;14.90;83.80;;;;;;4999353;28;20110;-65
2023/07/18 02:27:10;;;;;;;12.82;4.80;;;14.60;80.80;;;;;;5002121;28;20038;-65
2023/07/18 02:29:36;;;;;;;15.57;5.60;;;15.60;90.40;;;;;;4980309;28;20029;-65
2023/07/18 02:32:02;;;;;;;11.13;4.28;;;14.70;85.00;;;;;;4993751;28;20416;-65
2023/07/18 02:34:27;;;;;;;13.18;4.90;;;15.10;84.60;;;;;;4975832;28;20052;-65
2023/07/18 02:36:53;;;;;;;10.93;5.07;;;14.20;92.90;;;;;;4987822;28;20109;-65
2023/07/18 02:39:19;;;;;;;15.40;4.85;;;14.90;90.70;;;;;;4997184;28;20042;-65
2023/07/18 02:41:45;;;;;;;14.15;4.38;;;15.00;89.70;;;;;;4988310;28;20042;-65
2023/07/18 02:44:11;;;;;;;13.40;5.30;;;15.00;91.40;;;;;;4998409;28;20041;-65
2023/07/18 02:46:37;;;;;;;13.65;4.88;;;14.80;95.30;;;;;;5000075;28;20114;-65
2023/07/18 02:49:03;;;;;;;14.88;4.43;;;14.90;94.60;;;;;;5020953;28;20034;-65
2023/07/18 02:51:29;;;;;;;14.85;5.30;;;14.70;96.60;;;;;;4993436;28;20102;-65
2023/07/18 02:53:56;;;;;;;10.75;4.88;;;;;;;;;;5012019;28;20563;-65
2023/07/18 02:56:22;;;;;;;11.68;4.63;;;;;;;;;;4996682;28;20042;-65
2023/07/18 02:58:49;;;;;;;14.23;4.70;;;14.70;96.80;;;;;;4990815;28;20037;-65
2023/07/18 03:01:17;;;;;;;10.10;4.35;;;13.90;96.00;;;;;;4997997;28;20034;-65
2023/07/18 03:03:44;;;;;;;16.23;4.90;;;15.70;96.70;;;;;;4988376;28;20046;-65
2023/07/18 03:06:10;;;;;;;17.10;5.43;;;15.30;97.60;;;;;;4996258;28;20039;-65
2023/07/18 03:08:36;;;;;;;16.42;5.22;;;15.60;95.70;;;;;;4989085;28;20041;-65
2023/07/18 03:11:05;;;;;;;11.25;4.68;;;15.00;97.00;;;;;;4994662;28;20049;-65
2023/07/18 03:13:31;;;;;;;12.85;4.40;;;14.80;96.90;;;;;;4989393;28;20042;-65
2023/07/18 03:15:57;;;;;;;18.00;5.13;;;14.60;97.90;;;;;;4994977;28;20036;-65
2023/07/18 03:18:22;;;;;;;16.88;4.75;;;14.60;99.90;;;;;;4990800;28;20162;-65
2023/07/18 03:20:49;;;;;;;14.93;4.28;;;14.70;99.90;;;;;;4986697;28;20096;-65
2023/07/18 03:23:14;;;;;;;12.70;4.60;;;15.00;99.90;;;;;;4994323;28;20388;-65
2023/07/18 03:25:40;;;;;;;11.65;4.38;;;15.00;99.90;;;;;;4996022;28;20045;-64
2023/07/18 03:28:07;;;;;;;11.13;4.25;;;14.80;99.90;;;;;;4989885;28;20446;-66
2023/07/18 03:30:33;;;;;;;11.52;4.85;;;14.70;99.30;;;;;;5010466;28;20042;-65
2023/07/18 03:32:59;;;;;;;16.70;5.47;;;14.80;97.90;;;;;;4995257;28;20116;-65
2023/07/18 03:35:25;;;;;;;15.18;4.93;;;14.90;99.90;;;;;;4980913;28;20078;-65
2023/07/18 03:37:50;;;;;;;13.85;4.97;;;14.40;99.90;;;;;;5008000;28;20050;-65
2023/07/18 03:40:16;;;;;;;11.65;4.43;;;14.40;99.90;;;;;;4986843;28;20038;-65
2023/07/18 03:42:45;;;;;;;11.43;4.68;;;15.10;99.90;;;;;;4989813;28;20584;-65
2023/07/18 03:45:13;;;;;;;16.00;5.30;;;14.90;99.90;;;;;;4987740;28;20097;-65
2023/07/18 03:47:40;;;;;;;13.25;4.57;;;14.90;99.90;;;;;;4991413;28;20077;-65
2023/07/18 03:50:07;;;;;;;13.50;4.97;;;14.80;99.90;;;;;;4983789;28;20461;-65
2023/07/18 03:52:33;;;;;;;17.77;5.28;;;14.80;99.90;;;;;;4997282;28;20046;-65
2023/07/18 03:54:59;;;;;;;18.33;5.40;;;14.50;99.90;;;;;;4995101;28;20092;-65
2023/07/18 03:57:27;;;;;;;14.73;5.28;;;15.50;99.90;;;;;;4997933;28;20501;-65
2023/07/18 03:59:53;;;;;;;16.80;5.13;;;15.00;99.90;;;;;;4990457;28;20411;-65
2023/07/18 04:02:18;;;;;;;13.48;5.53;;;14.80;99.90;;;;;;5014140;28;20043;-65
2023/07/18 04:04:44;;;;;;;13.95;5.22;;;14.90;99.90;;;;;;5013657;28;20036;-66
2023/07/18 04:07:10;;;;;;;16.88;5.38;;;15.00;99.90;;;;;;4990460;28;20404;-65
2023/07/18 04:09:35;;;;;;;15.73;5.45;;;15.10;99.90;;;;;;4996730;28;20034;-65
2023/07/18 04:12:01;;;;;;;11.15;5.25;;;14.90;99.90;;;;;;4997868;28;20052;-65
2023/07/18 04:14:27;;;;;;;10.88;4.72;;;14.60;99.90;;;;;;4993141;28;20050;-65
2023/07/18 04:16:52;;;;;;;13.13;5.00;;;15.90;99.90;;;;;;4997493;28;20496;-65
2023/07/18 04:19:19;;;;;;;11.98;4.13;;;15.30;99.90;;;;;;4999096;28;20038;-65
2023/07/18 04:21:45;;;;;;;18.35;4.90;;;14.40;99.90;;;;;;5000259;28;20512;-65
2023/07/18 04:24:11;;;;;;;16.45;5.00;;;14.80;99.90;;;;;;4981864;28;20066;-65
2023/07/18 04:26:36;;;;;;;20.08;5.70;;;14.80;99.90;;;;;;5006484;28;20034;-65
2023/07/18 04:29:07;;;;;;;17.27;4.68;;;14.70;99.90;;;;;;4983460;28;20376;-66
2023/07/18 04:31:33;;;;;;;16.90;5.65;;;15.90;99.90;;;;;;4982868;28;20053;-65
2023/07/18 04:33:59;;;;;;;15.00;4.65;;;15.20;99.90;;;;;;4981948;28;20035;-66
2023/07/18 04:36:25;;;;;;;15.73;4.93;;;15.40;99.90;;;;;;4983415;28;20093;-66
2023/07/18 04:38:51;;;;;;;20.55;5.55;;;15.10;99.90;;;;;;4997700;28;20035;-65
2023/07/18 04:41:17;;;;;;;16.17;5.30;;;15.30;99.90;;;;;;4979106;28;20401;-65
2023/07/18 04:43:42;;;;;;;11.52;4.95;;;15.40;99.90;;;;;;4983268;28;20035;-66
2023/07/18 04:46:10;;;;;;;14.30;4.75;;;15.10;99.90;;;;;;4982244;28;20066;-66
2023/07/18 04:48:36;;;;;;;13.90;4.68;;;15.80;99.90;;;;;;4966144;28;20061;-66
2023/07/18 04:51:03;;;;;;;15.63;5.40;;;16.10;99.90;;;;;;4983432;28;20038;-66
2023/07/18 04:53:30;;;;;;;12.98;5.00;;;15.30;99.90;;;;;;4983725;28;20039;-66
2023/07/18 04:55:56;;;;;;;21.48;5.88;;;15.20;99.90;;;;;;4981164;28;20034;-66
2023/07/18 04:58:26;;;;;;;13.23;4.97;;;15.80;99.90;;;;;;4985730;28;20039;-66
2023/07/18 05:00:54;;;;;;;13.70;5.18;;;15.20;99.90;;;;;;4983144;28;20046;-66
2023/07/18 05:03:21;;;;;;;14.80;5.40;;;15.10;99.90;;;;;;5011922;28;20074;-66
2023/07/18 05:05:46;;;;;;;13.05;5.22;;;15.40;99.90;;;;;;4982665;28;20092;-66
2023/07/18 05:08:12;;;;;;;12.75;5.30;;;15.70;99.90;;;;;;4981096;28;20117;-66
2023/07/18 05:10:39;;;;;;;14.70;5.15;;;15.30;99.90;;;;;;4991877;28;20414;-66
2023/07/18 05:13:04;;;;;;;14.18;5.05;;;15.10;99.90;;;;;;4991191;28;20039;-64
2023/07/18 05:15:30;;;;;;;14.75;4.57;;;15.40;99.90;;;;;;4985460;28;20488;-64
2023/07/18 05:17:56;;;;;;;14.55;5.30;;;15.50;99.90;;;;;;4990874;28;20069;-64
2023/07/18 05:20:21;;;;;;;15.25;6.22;;;15.50;99.90;;;;;;4992861;28;20046;-64
2023/07/18 05:22:47;;;;;;;15.45;5.53;;;16.20;99.90;;;;;;4988601;28;20117;-65
2023/07/18 05:25:14;;;;;;;16.05;5.22;;;15.90;99.90;;;;;;4986724;28;20054;-64
2023/07/18 05:27:41;;;;;;;14.63;5.70;;;16.10;99.90;;;;;;5011665;28;20083;-64
2023/07/18 05:30:13;;;;;;;17.35;4.80;;;16.00;99.90;;;;;;4981120;28;20078;-64
2023/07/18 05:32:40;;;;;;;20.30;5.40;;;15.90;99.90;;;;;;4987719;28;20499;-64
2023/07/18 05:35:06;;;;;;;13.57;4.90;;;16.10;99.90;;;;;;4991444;28;20073;-64
2023/07/18 05:37:32;;;;;;;13.13;5.40;;;15.70;99.90;;;;;;5009002;28;20097;-64
2023/07/18 05:39:57;;;;;;;12.10;4.18;;;15.80;99.90;;;;;;4983839;28;20038;-64
2023/07/18 05:42:23;;;;;;;9.82;3.85;;;15.70;99.90;;;;;;5010305;28;20074;-64
2023/07/18 05:44:49;;;;;;;14.77;4.95;;;16.20;99.90;;;;;;4987213;28;20034;-64
2023/07/18 05:47:15;;;;;;;13.48;5.13;;;16.30;99.90;;;;;;4977850;28;20038;-64
2023/07/18 05:49:41;;;;;;;12.60;4.65;;;15.50;99.90;;;;;;4988839;28;20479;-64
2023/07/18 05:52:07;;;;;;;15.00;5.15;;;16.60;99.90;;;;;;4992258;28;20062;-65
2023/07/18 05:54:32;;;;;;;12.00;4.63;;;16.90;99.90;;;;;;5005661;28;20091;-65
2023/07/18 05:56:58;;;;;;;16.20;5.30;;;16.40;99.90;;;;;;4990763;28;20445;-65
2023/07/18 05:59:25;;;;;;;15.32;5.43;;;16.40;99.90;;;;;;4980254;28;20074;-64
2023/07/18 06:01:50;;;;;;;15.25;4.45;;;16.60;99.90;;;;;;4987055;28;20043;-65
2023/07/18 06:04:16;;;;;;;15.32;5.00;;;16.50;99.90;;;;;;5012705;28;20422;-65
2023/07/18 06:06:43;;;;;;;13.65;4.30;;;15.90;99.90;;;;;;5000371;28;20069;-65
2023/07/18 06:09:09;;;;;;;15.25;5.88;;;17.00;99.90;;;;;;5004507;28;20046;-65
2023/07/18 06:11:35;;;;;;;15.43;5.32;;;17.30;99.90;;;;;;5001755;28;20042;-65
2023/07/18 06:14:01;;;;;;;14.88;5.13;;;16.60;99.90;;;;;;5001348;28;20377;-65
2023/07/18 06:16:27;;;;;;;15.70;5.13;;;16.50;99.90;;;;;;5004184;28;20038;-65
2023/07/18 06:18:54;;;;;;;17.10;4.78;;;16.70;99.90;;;;;;5022131;28;20050;-65
2023/07/18 06:21:19;;;;;;;16.77;4.78;;;16.50;99.90;;;;;;5013715;28;20530;-65
2023/07/18 06:23:45;;;;;;;14.70;4.75;;;16.70;99.90;;;;;;4991789;28;20042;-65
2023/07/18 06:26:10;;;;;;;17.02;6.10;;;16.60;99.90;;;;;;5009203;28;20057;-65
2023/07/18 06:28:36;;;;;;;22.00;5.82;;;17.10;99.90;;;;;;4993046;28;20382;-65
2023/07/18 06:31:02;;;;;;;18.02;6.40;;;17.00;99.90;;;;;;4998521;28;20065;-65
2023/07/18 06:33:29;;;;;;;14.40;5.68;;;16.60;99.90;;;;;;5001951;28;20042;-65
2023/07/18 06:35:56;;;;;;;19.90;5.63;;;17.00;99.90;;;;;;5001374;28;20400;-65
2023/07/18 06:38:23;;;;;;;12.40;4.63;;;16.80;99.90;;;;;;4996621;28;20207;-65
2023/07/18 06:40:52;;;;;;;13.95;4.07;;;16.80;99.90;;;;;;4991801;28;20493;-65
2023/07/18 06:43:18;;;;;;;13.57;4.00;;;17.20;98.60;;;;;;4993862;28;20496;-65
2023/07/18 06:45:45;;;;;;;14.35;4.07;;;16.80;76.60;;;;;;5010886;28;20170;-65
2023/07/18 06:48:11;;;;;;;9.40;3.28;;;17.30;14.60;;;;;;4995138;28;20084;-65
2023/07/18 06:50:38;;;;;;;10.57;2.92;;;16.70;1.00;;;;;;5001008;28;20035;-65
2023/07/18 06:53:04;;;;;;;8.85;2.67;;;17.90;1.00;;;;;;4991208;28;20093;-65
2023/07/18 06:55:30;;;;;;;7.75;2.03;;;17.30;1.00;;;;;;4988002;28;20038;-65
2023/07/18 06:57:56;;;;;;;7.85;2.00;;;17.00;1.00;;;;;;5011842;28;20460;-65
2023/07/18 07:00:22;;;;;;;7.70;2.17;;;17.10;99.90;;;;;;4998385;28;20101;-66
2023/07/18 07:02:48;;;;;;;8.45;2.20;;;17.20;99.90;;;;;;4995637;28;20117;-65
2023/07/18 07:05:14;;;;;;;7.45;2.33;;;17.60;99.90;;;;;;4990021;28;20154;-65
2023/07/18 07:07:40;;;;;;;9.82;2.30;;;17.90;99.90;;;;;;4998072;28;20473;-65
2023/07/18 07:10:08;;;;;;;7.50;2.53;;;18.50;99.90;;;;;;5001791;28;20044;-65
2023/07/18 07:12:34;;;;;;;9.52;2.45;;;17.40;99.90;;;;;;4994116;28;20214;-65
2023/07/18 07:15:01;;;;;;;10.80;2.38;;;17.80;99.90;;;;;;4992399;28;20042;-65
2023/07/18 07:17:26;;;;;;;7.03;2.00;;;17.80;99.90;;;;;;5004241;28;20052;-65
2023/07/18 07:19:53;;;;;;;11.32;2.60;;;17.70;99.90;;;;;;4997365;28;20461;-65
2023/07/18 07:22:18;;;;;;;5.38;1.65;;;18.70;99.90;;;;;;4998795;28;20133;-65
2023/07/18 07:24:46;;;;;;;8.15;1.90;;;18.70;99.90;;;;;;4998672;28;20117;-65
2023/07/18 07:27:15;;;;;;;8.50;2.72;;;18.10;99.90;;;;;;4994016;28;20044;-65
2023/07/18 07:29:41;;;;;;;8.88;2.97;;;17.70;99.90;;;;;;4992997;28;20054;-65
2023/07/18 07:32:07;;;;;;;9.88;2.55;;;18.10;99.90;;;;;;5006410;28;20558;-64
2023/07/18 07:34:33;;;;;;;9.50;3.10;;;18.50;99.90;;;;;;5004128;28;20034;-65
2023/07/18 07:36:58;;;;;;;8.40;2.45;;;18.80;99.90;;;;;;4995953;28;20122;-65
2023/07/18 07:39:24;;;;;;;11.05;3.03;;;18.90;99.90;;;;;;4999508;28;20462;-65
2023/07/18 07:41:50;;;;;;;8.70;2.88;;;18.60;99.90;;;;;;4993181;28;20428;-65
2023/07/18 07:44:30;;;;;;;8.95;2.58;;;18.60;99.90;;;;;;5005581;28;20071;-65
2023/07/18 07:46:57;;;;;;;12.65;2.83;;;19.00;99.90;;;;;;4982203;28;20043;-65
2023/07/18 07:49:22;;;;;;;9.15;2.70;;;18.60;99.90;;;;;;4989466;28;20038;-64
2023/07/18 07:51:49;;;;;;;7.97;3.00;;;18.90;99.90;;;;;;4992056;28;20134;-65
2023/07/18 07:54:15;;;;;;;11.70;2.78;;;18.70;99.90;;;;;;5003352;28;20033;-65
2023/07/18 07:56:40;;;;;;;13.20;3.53;;;18.40;99.90;;;;;;5000430;28;20049;-65
2023/07/18 07:59:06;;;;;;;11.88;2.88;;;18.70;99.90;;;;;;4995141;28;20026;-64
2023/07/18 08:01:31;;;;;;;8.52;2.90;;;18.20;99.90;;;;;;4995231;28;20536;-65
2023/07/18 08:03:57;;;;;;;11.80;3.40;;;18.80;99.90;;;;;;4994285;28;20448;-64
2023/07/18 08:06:23;;;;;;;10.85;3.60;;;19.10;99.90;;;;;;4990966;28;20400;-64
2023/07/18 08:08:49;;;;;;;14.15;3.80;;;19.50;99.90;;;;;;5026492;28;20038;-65
2023/07/18 08:11:14;;;;;;;14.48;3.80;;;19.00;99.90;;;;;;4992223;28;20409;-65
2023/07/18 08:13:40;;;;;;;13.25;3.50;;;18.40;99.90;;;;;;4991395;28;20042;-64
2023/07/18 08:16:06;;;;;;;14.38;4.07;;;19.00;99.90;;;;;;5003517;28;20041;-63
2023/07/18 08:18:31;;;;;;;15.98;3.78;;;19.20;99.90;;;;;;4995383;28;20130;-64
2023/07/18 08:20:57;;;;;;;13.55;3.80;;;18.20;99.90;;;;;;5001921;28;20049;-65
2023/07/18 08:23:23;;;;;;;11.85;3.38;;;18.90;99.90;;;;;;5004101;28;20034;-64
2023/07/18 08:25:49;;;;;;;10.25;3.47;;;19.10;99.90;;;;;;5003583;28;20029;-64
2023/07/18 08:28:14;;;;;;;12.02;3.10;;;19.00;99.90;;;;;;4995355;28;20050;-64
2023/07/18 08:30:40;;;;;;;9.82;3.13;;;19.00;99.90;;;;;;4993098;28;20035;-64
2023/07/18 08:33:09;;;;;;;12.75;4.05;;;19.00;99.90;;;;;;4994109;28;20101;-65
2023/07/18 08:35:37;;;;;;;10.82;3.25;;;19.10;99.90;;;;;;4993863;28;20083;-65
2023/07/18 08:38:04;;;;;;;10.85;2.83;;;18.70;99.90;;;;;;5009757;28;20038;-65
2023/07/18 08:40:30;;;;;;;9.45;2.80;;;19.20;99.90;;;;;;4987386;28;20178;-64
2023/07/18 08:42:56;;;;;;;12.63;3.90;;;19.20;57.40;;;;;;4991614;28;20070;-65
2023/07/18 08:45:27;;;;;;;10.60;2.47;;;19.10;44.00;;;;;;4989581;28;20074;-65
2023/07/18 08:47:56;;;;;;;8.75;2.72;;;19.40;19.60;;;;;;4994874;28;20061;-65
2023/07/18 08:50:23;;;;;;;10.85;2.78;;;19.50;4.50;;;;;;5003589;28;20066;-64
2023/07/18 08:52:49;;;;;;;10.13;3.22;;;19.40;17.20;;;;;;4993741;28;20125;-65
2023/07/18 08:55:14;;;;;;;8.45;2.50;;;19.40;30.00;;;;;;4997252;28;20046;-65
2023/07/18 08:57:41;;;;;;;8.25;2.80;;;19.60;37.20;;;;;;4994073;28;20050;-65
2023/07/18 09:00:07;;;;;;;8.60;2.60;;;19.20;29.00;;;;;;4991456;28;20073;-63
2023/07/18 09:02:33;;;;;;;8.43;2.60;;;19.30;41.40;;;;;;4997230;28;20045;-64
2023/07/18 09:04:59;;;;;;;10.40;3.03;;;19.30;51.30;;;;;;4989661;28;20035;-64
2023/07/18 09:07:27;;;;;;;8.10;2.78;;;19.20;28.00;;;;;;5000882;28;20041;-65
2023/07/18 09:09:55;;;;;;;8.95;3.10;;;19.60;13.20;;;;;;5003083;28;20451;-64
2023/07/18 09:12:20;;;;;;;8.98;2.65;;;19.20;1.00;;;;;;5005772;28;20046;-64
2023/07/18 09:14:46;;;;;;;10.23;2.90;;;20.20;1.00;;;;;;5000623;28;20042;-65
2023/07/18 09:17:12;;;;;;;8.55;2.90;;;19.70;1.00;;;;;;5002938;28;20038;-64
2023/07/18 09:19:48;;;;;;;10.15;3.05;;;19.70;1.00;;;;;;5006092;28;20537;-64
2023/07/18 09:22:16;;;;;;;8.38;2.80;;;20.10;1.00;;;;;;5025989;28;20039;-64
2023/07/18 09:24:42;;;;;;;6.25;2.65;;;19.40;1.00;;;;;;4995924;28;20515;-65
2023/07/18 09:27:19;;;;;;;7.57;2.47;;;19.80;1.00;;;;;;4995613;28;20034;-64
2023/07/18 09:29:47;;;;;;;13.02;2.83;;;19.60;1.00;;;;;;4993422;28;20417;-64
2023/07/18 09:32:17;;;;;;;8.25;2.83;;;19.60;1.00;;;;;;5012831;28;20050;-64
2023/07/18 09:35:00;;;;;;;11.85;3.25;;;20.10;1.00;;;;;;4992928;28;20054;-64
2023/07/18 09:37:26;;;;;;;8.25;2.60;;;20.50;1.00;;;;;;4983144;28;20046;-64
2023/07/18 09:39:54;;;;;;;8.90;2.33;;;20.80;99.90;;;;;;4992592;28;20042;-64
2023/07/18 09:42:21;;;;;;;8.45;2.38;;;19.90;99.90;;;;;;4992462;28;20050;-66
2023/07/18 09:44:48;;;;;;;8.68;2.38;;;20.00;99.90;;;;;;4992518;28;20138;-64
2023/07/18 09:47:15;;;;;;;8.45;2.70;;;19.80;1.00;;;;;;4999735;28;20038;-65
2023/07/18 09:49:43;;;;;;;9.30;3.03;;;20.00;1.00;;;;;;5002392;28;20550;-64
2023/07/18 09:52:09;;;;;;;7.95;3.28;;;20.20;1.00;;;;;;4992905;28;20046;-64
2023/07/18 09:54:35;;;;;;;7.53;3.00;;;20.80;1.00;;;;;;4996146;28;20500;-65
2023/07/18 09:57:05;;;;;;;8.18;2.60;;;21.00;1.00;;;;;;4994496;28;20092;-64
2023/07/18 09:59:37;;;;;;;8.60;2.67;;;20.50;1.00;;;;;;4998460;28;20489;-64
2023/07/18 10:02:06;;;;;;;7.43;2.67;;;21.00;1.00;;;;;;4999738;28;20046;-65
2023/07/18 10:04:32;;;;;;;10.90;2.78;;;20.70;1.00;;;;;;4995763;28;20045;-64
2023/07/18 10:06:59;;;;;;;11.80;3.38;;;21.20;1.00;;;;;;4988317;28;20400;-64
2023/07/18 10:09:27;;;;;;;9.65;2.70;;;20.50;1.00;;;;;;5008863;28;20403;-64
2023/07/18 10:11:59;;;;;;;7.18;2.75;;;21.40;1.00;;;;;;5001781;28;20045;-64
2023/07/18 10:14:56;;;;;;;8.13;3.15;;;21.80;1.00;;;;;;4977699;28;20201;-64
2023/07/18 10:17:31;;;;;;;12.88;3.72;;;20.50;99.90;;;;;;4995164;28;20442;-65
2023/07/18 10:19:57;;;;;;;11.27;2.90;;;21.40;99.90;;;;;;4993490;28;20030;-64
2023/07/18 10:22:30;;;;;;;9.73;2.95;;;21.30;1.00;;;;;;4998184;28;20336;-64
2023/07/18 10:25:00;;;;;;;9.55;2.60;;;21.10;1.00;;;;;;4998995;28;20042;-64
2023/07/18 10:27:52;;;;;;;8.20;3.10;;;20.40;99.90;;;;;;4976669;28;20416;-65
2023/07/18 10:30:20;;;;;;;13.63;3.50;;;20.30;99.90;;;;;;4996802;28;20418;-64
2023/07/18 10:32:58;;;;;;;10.05;3.50;;;20.80;1.00;;;;;;4975382;28;20366;-65
2023/07/18 10:35:27;;;;;;;10.95;2.83;;;21.30;1.00;;;;;;4984974;28;20045;-64
2023/07/18 10:37:57;;;;;;;8.60;2.53;;;21.30;99.90;;;;;;4995910;28;20100;-65
2023/07/18 10:40:39;;;;;;;7.82;2.78;;;20.60;99.90;;;;;;4985870;28;20400;-64
2023/07/18 10:43:08;;;;;;;9.07;3.20;;;20.80;99.90;;;;;;4951080;28;1212866;-64
2023/07/18 10:45:41;;;;;;;9.68;4.20;;;20.40;99.90;;;;;;4986925;28;20129;-66
2023/07/18 10:48:10;;;;;;;12.00;3.45;;;21.70;99.90;;;;;;4970129;28;20039;-63
2023/07/18 10:50:36;;;;;;;9.40;2.90;;;21.40;99.90;;;;;;4984046;28;20430;-64
2023/07/18 10:53:02;;;;;;;14.65;4.43;;;21.60;99.90;;;;;;4993328;28;20096;-65
2023/07/18 10:55:28;;;;;;;8.10;3.10;;;20.80;99.90;;;;;;5002693;28;20054;-64
2023/07/18 10:57:55;;;;;;;12.20;3.88;;;21.00;99.90;;;;;;4985490;28;20066;-64
2023/07/18 11:00:23;;;;;;;9.05;3.65;;;21.00;99.90;;;;;;4989437;28;20042;-62
2023/07/18 11:02:49;;;;;;;11.43;3.53;;;22.00;99.90;;;;;;4976645;28;20055;-66
2023/07/18 11:05:15;;;;;;;8.95;3.65;;;22.00;99.90;;;;;;4986768;28;20147;-68
2023/07/18 11:07:42;;;;;;;10.55;3.88;;;21.20;99.90;;;;;;4975556;28;20038;-67
2023/07/18 11:10:09;;;;;;;15.27;4.55;;;22.30;99.90;;;;;;4986204;28;20038;-66
2023/07/18 11:12:35;;;;;;;10.10;3.88;;;22.00;99.90;;;;;;4984292;28;20053;-64
2023/07/18 11:15:04;;;;;;;11.05;3.65;;;21.70;99.90;;;;;;4989928;28;20504;-65
2023/07/18 11:17:30;;;;;;;13.48;4.28;;;22.30;99.90;;;;;;4982058;28;20069;-69
2023/07/18 11:19:57;;;;;;;9.27;2.97;;;22.10;99.90;;;;;;4988260;28;20042;-69
2023/07/18 11:22:24;;;;;;;7.65;3.53;;;22.10;76.70;;;;;;4988628;28;20041;-69
2023/07/18 11:24:51;;;;;;;14.02;4.47;;;22.30;58.30;;;;;;4977955;28;20030;-69
2023/07/18 11:27:22;;;;;;;7.57;3.00;;;22.00;99.90;;;;;;4990218;28;20046;-64
2023/07/18 11:30:04;;;;;;;9.05;3.60;;;21.40;99.90;;;;;;4994738;28;20038;-65
2023/07/18 11:32:30;;;;;;;9.20;3.75;;;22.20;14.80;;;;;;4982999;28;20050;-64
2023/07/18 11:34:59;;;;;;;8.57;3.25;;;22.20;4.00;;;;;;4998091;28;20053;-65
2023/07/18 11:37:25;;;;;;;8.80;3.30;;;22.50;20.90;;;;;;5000162;28;20038;-66
2023/07/18 11:39:53;;;;;;;8.38;3.65;;;22.10;99.90;;;;;;5001874;28;20110;-66
2023/07/18 11:42:19;;;;;;;12.75;3.13;;;22.20;57.30;;;;;;4997903;28;20042;-66
2023/07/18 11:44:45;;;;;;;9.07;3.17;;;22.40;1.00;;;;;;5004105;28;20065;-66
2023/07/18 11:47:12;;;;;;;7.85;2.55;;;22.60;1.00;;;;;;4989725;28;20461;-66
2023/07/18 11:49:38;;;;;;;9.30;3.00;;;22.40;1.00;;;;;;4987470;28;20035;-67
2023/07/18 11:52:05;;;;;;;8.18;3.35;;;22.70;1.00;;;;;;4993678;28;20046;-66
2023/07/18 11:54:34;;;;;;;9.05;3.20;;;22.40;1.00;;;;;;4990506;28;20092;-67
2023/07/18 11:56:59;;;;;;;10.95;3.53;;;22.80;1.00;;;;;;4985254;28;20074;-67
2023/07/18 11:59:25;;;;;;;12.05;3.10;;;22.80;1.00;;;;;;5003363;28;20440;-67
2023/07/18 12:01:51;;;;;;;8.15;2.70;;;22.70;1.00;;;;;;4986047;28;20113;-67
2023/07/18 12:04:16;;;;;;;8.18;3.50;;;22.60;1.00;;;;;;4990237;28;20473;-67
2023/07/18 12:06:42;;;;;;;9.90;3.33;;;23.00;99.90;;;;;;4998079;28;20047;-66
2023/07/18 12:09:08;;;;;;;7.88;2.85;;;23.10;99.90;;;;;;5006991;28;20047;-67
2023/07/18 12:11:34;;;;;;;7.90;2.80;;;23.20;99.90;;;;;;5007494;28;20034;-67
2023/07/18 12:14:02;;;;;;;9.15;2.60;;;23.60;99.90;;;;;;4997337;28;20034;-67
2023/07/18 12:16:27;;;;;;;8.45;2.53;;;23.20;99.90;;;;;;4993788;28;20411;-67
2023/07/18 12:18:53;;;;;;;8.38;3.05;;;23.50;99.80;;;;;;4989951;28;20113;-68
2023/07/18 12:21:19;;;;;;;6.80;2.22;;;24.30;65.00;;;;;;4984642;28;20448;-67
2023/07/18 12:23:44;;;;;;;6.50;2.13;;;23.20;18.10;;;;;;4983072;28;20089;-67
2023/07/18 12:26:11;;;;;;;9.00;2.60;;;23.30;16.70;;;;;;4994420;28;20089;-67
2023/07/18 12:28:37;;;;;;;5.50;1.90;;;23.10;56.10;;;;;;4993107;28;20041;-67
2023/07/18 12:31:02;;;;;;;7.80;2.50;;;24.30;98.90;;;;;;4968468;28;20437;-67
2023/07/18 12:33:28;;;;;;;10.57;2.33;;;24.00;99.90;;;;;;4990141;28;20675;-67
2023/07/18 12:35:53;;;;;;;10.35;2.40;;;24.40;86.60;;;;;;4983283;28;20489;-68
2023/07/18 12:38:19;;;;;;;6.80;2.30;;;24.30;43.30;;;;;;4988971;28;20082;-68
2023/07/18 12:40:45;;;;;;;8.73;2.35;;;25.70;26.00;;;;;;4966532;28;20054;-68